Time;durP1;ratioP1;P1;durP2;ratioP2;P2;SDS_P1;SDS_P2;PMS_P1;PMS_P2;Temp;Humidity;BMP_temperature;BMP_pressure;BME280_temperature;BME280_humidity;BME280_pressure;Samples;Min_cycle;Max_cycle;Signal;HPM_P1;HPM_P2
2024/02/24 00:00:16;;;;;;;4.97;1.70;;;;;;;0.34;100.00;95490.72;5016917;28;20034;-66
2024/02/24 00:02:42;;;;;;;3.67;2.00;;;;;;;0.39;100.00;95492.69;5020243;28;20041;-66
2024/02/24 00:05:09;;;;;;;4.32;1.75;;;;;;;0.27;100.00;95490.06;5025054;28;20084;-66
2024/02/24 00:07:35;;;;;;;5.80;1.90;;;;;;;0.35;100.00;95487.03;5021203;28;20041;-66
2024/02/24 00:10:02;;;;;;;5.32;1.70;;;;;;;0.24;100.00;95498.50;5021741;28;20642;-66
2024/02/24 00:12:29;;;;;;;3.95;1.48;;;;;;;0.24;100.00;95482.53;5023607;28;20107;-66
2024/02/24 00:14:55;;;;;;;3.55;2.00;;;;;;;0.28;100.00;95486.34;5021993;28;20064;-66
2024/02/24 00:17:22;;;;;;;3.15;1.60;;;;;;;0.11;100.00;95483.59;5024474;28;20041;-67
2024/02/24 00:19:48;;;;;;;4.82;1.67;;;;;;;0.15;100.00;95478.59;5022985;28;20508;-66
2024/02/24 00:22:15;;;;;;;5.25;1.55;;;;;;;0.21;100.00;95477.66;5024466;28;20559;-66
2024/02/24 00:24:41;;;;;;;4.20;1.50;;;;;;;0.24;100.00;95471.88;5029048;28;20052;-67
2024/02/24 00:27:08;;;;;;;8.40;2.65;;;;;;;0.36;100.00;95482.50;5024197;28;20598;-66
2024/02/24 00:29:34;;;;;;;7.90;2.63;;;;;;;0.40;100.00;95483.66;5028180;28;20045;-66
2024/02/24 00:32:01;;;;;;;5.25;1.92;;;;;;;0.61;100.00;95486.75;5023398;28;20041;-66
2024/02/24 00:34:28;;;;;;;4.63;1.38;;;;;;;0.74;100.00;95485.69;5022536;28;20045;-66
2024/02/24 00:36:54;;;;;;;5.50;1.52;;;;;;;0.82;100.00;95489.84;5016851;28;20468;-66
2024/02/24 00:39:21;;;;;;;4.13;1.90;;;;;;;0.85;100.00;95492.81;5024915;28;20037;-66
2024/02/24 00:41:50;;;;;;;5.38;1.85;;;;;;;0.93;100.00;95493.50;5025792;28;20099;-66
2024/02/24 00:44:17;;;;;;;3.60;1.48;;;;;;;0.97;100.00;95484.00;5023375;28;20063;-66
2024/02/24 00:46:43;;;;;;;8.02;1.90;;;;;;;1.02;100.00;95492.91;5025933;28;20214;-66
2024/02/24 00:49:10;;;;;;;5.20;1.77;;;;;;;0.99;100.00;95498.69;5023452;28;20046;-66
2024/02/24 00:51:36;;;;;;;6.22;1.45;;;;;;;1.12;100.00;95494.13;5022920;28;20134;-66
2024/02/24 00:54:04;;;;;;;5.82;1.75;;;;;;;1.27;100.00;95499.75;5020822;28;20041;-66
2024/02/24 00:56:30;;;;;;;4.78;1.83;;;;;;;1.31;100.00;95494.75;5024367;28;20504;-66
2024/02/24 00:58:57;;;;;;;4.40;1.50;;;;;;;1.20;100.00;95496.44;5023605;28;20037;-66
2024/02/24 01:01:23;;;;;;;3.13;1.58;;;;;;;1.14;100.00;95492.06;5024708;28;20049;-66
2024/02/24 01:03:50;;;;;;;8.35;4.55;;;;;;;0.83;100.00;95505.59;5019288;28;20048;-66
2024/02/24 01:06:16;;;;;;;4.07;1.83;;;;;;;0.50;100.00;95509.69;5014769;28;20100;-66
2024/02/24 01:08:43;;;;;;;4.70;1.58;;;;;;;0.30;100.00;95508.25;5024195;28;20045;-66
2024/02/24 01:11:10;;;;;;;3.67;1.42;;;;;;;0.01;100.00;95505.47;5025543;28;20041;-66
2024/02/24 01:13:36;;;;;;;3.70;1.50;;;;;;;0.02;100.00;95519.56;5021677;28;20033;-66
2024/02/24 01:16:03;;;;;;;5.95;1.70;;;;;;;0.11;100.00;95513.66;5021801;28;20034;-66
2024/02/24 01:18:30;;;;;;;3.97;1.65;;;;;;;0.10;100.00;95514.72;5025164;28;20053;-66
2024/02/24 01:20:57;;;;;;;5.07;1.80;;;;;;;0.17;100.00;95509.28;5022279;28;20124;-66
2024/02/24 01:23:24;;;;;;;3.85;1.63;;;;;;;0.29;100.00;95511.91;5024549;28;20133;-66
2024/02/24 01:25:51;;;;;;;5.22;1.65;;;;;;;0.45;100.00;95515.75;5025393;28;20053;-66
2024/02/24 01:28:17;;;;;;;4.03;1.65;;;;;;;0.63;100.00;95516.66;5022221;28;20033;-66
2024/02/24 01:30:44;;;;;;;6.75;1.70;;;;;;;0.69;100.00;95518.34;5015884;28;20044;-66
2024/02/24 01:33:10;;;;;;;4.60;1.45;;;;;;;0.78;100.00;95521.47;5014617;28;20121;-66
2024/02/24 01:35:37;;;;;;;6.28;1.70;;;;;;;1.00;100.00;95508.31;5021472;28;20048;-66
2024/02/24 01:38:07;;;;;;;3.67;1.55;;;;;;;1.03;100.00;95512.34;5025456;28;20049;-66
2024/02/24 01:40:34;;;;;;;2.80;1.45;;;;;;;1.06;100.00;95516.44;5021847;28;20663;-66
2024/02/24 01:43:00;;;;;;;4.18;1.50;;;;;;;1.05;100.00;95520.94;5022281;28;20033;-66
2024/02/24 01:45:27;;;;;;;4.60;1.88;;;;;;;1.14;100.00;95527.50;5020264;28;20041;-67
2024/02/24 01:47:53;;;;;;;4.55;1.90;;;;;;;1.40;100.00;95533.31;5022539;28;20107;-66
2024/02/24 01:50:21;;;;;;;5.97;1.40;;;;;;;1.68;100.00;95541.53;5024876;28;20580;-66
2024/02/24 01:52:49;;;;;;;3.50;1.25;;;;;;;1.98;100.00;95540.44;5025942;28;20116;-66
2024/02/24 01:55:17;;;;;;;2.45;1.23;;;;;;;2.13;100.00;95542.53;5023491;28;20048;-66
2024/02/24 01:57:47;;;;;;;2.72;1.25;;;;;;;2.21;100.00;95538.63;5020188;28;20048;-66
2024/02/24 02:00:14;;;;;;;4.00;1.20;;;;;;;2.19;100.00;95535.41;5024507;28;20037;-66
2024/02/24 02:02:45;;;;;;;3.90;1.38;;;;;;;2.06;100.00;95526.69;5025580;28;20056;-66
2024/02/24 02:05:12;;;;;;;1.67;0.93;;;;;;;1.94;100.00;95520.59;5008861;28;20096;-65
2024/02/24 02:07:39;;;;;;;4.10;0.95;;;;;;;1.86;100.00;95521.81;5020107;28;20045;-66
2024/02/24 02:10:06;;;;;;;3.03;1.30;;;;;;;1.88;100.00;95526.94;5014263;28;20050;-66
2024/02/24 02:12:34;;;;;;;1.45;0.77;;;;;;;1.82;100.00;95507.34;5017447;28;20067;-66
2024/02/24 02:15:03;;;;;;;2.38;0.90;;;;;;;1.76;100.00;95511.78;5016392;28;20061;-66
2024/02/24 02:17:30;;;;;;;1.73;0.80;;;;;;;1.71;100.00;95509.03;5016195;28;20034;-66
2024/02/24 02:20:01;;;;;;;2.88;1.10;;;;;;;1.64;100.00;95511.88;5015637;28;20110;-66
2024/02/24 02:22:28;;;;;;;2.55;1.00;;;;;;;1.60;100.00;95507.25;5022611;28;20049;-66
2024/02/24 02:24:54;;;;;;;5.82;1.17;;;;;;;1.54;100.00;95507.16;5012427;28;20048;-66
2024/02/24 02:27:21;;;;;;;3.08;0.95;;;;;;;1.46;100.00;95507.56;5023889;28;20041;-66
2024/02/24 02:29:47;;;;;;;2.00;1.08;;;;;;;1.39;100.00;95504.22;5015906;28;20037;-66
2024/02/24 02:32:14;;;;;;;4.28;1.30;;;;;;;1.33;100.00;95510.50;5021706;28;20059;-66
2024/02/24 02:34:41;;;;;;;1.95;0.93;;;;;;;1.35;100.00;95521.75;5020387;28;20076;-66
2024/02/24 02:37:07;;;;;;;2.17;0.90;;;;;;;1.40;100.00;95527.97;5019151;28;20037;-66
2024/02/24 02:39:34;;;;;;;2.15;0.90;;;;;;;1.45;100.00;95529.94;5020914;28;20040;-66
2024/02/24 02:42:00;;;;;;;1.65;0.80;;;;;;;1.44;100.00;95536.34;5014126;28;20124;-66
2024/02/24 02:44:27;;;;;;;1.85;0.80;;;;;;;1.49;100.00;95528.41;5010826;28;20045;-66
2024/02/24 02:46:53;;;;;;;2.20;0.85;;;;;;;1.53;100.00;95532.22;5022511;28;20037;-66
2024/02/24 02:49:20;;;;;;;2.88;0.88;;;;;;;1.53;100.00;95524.22;5016480;28;20042;-66
2024/02/24 02:51:47;;;;;;;1.23;0.80;;;;;;;1.48;100.00;95525.97;5022854;28;20049;-66
2024/02/24 02:54:13;;;;;;;1.48;0.80;;;;;;;1.46;100.00;95530.72;5017870;28;20045;-66
2024/02/24 02:56:40;;;;;;;2.35;0.70;;;;;;;1.43;100.00;95529.34;5018970;28;20045;-66
2024/02/24 02:59:07;;;;;;;2.50;0.70;;;;;;;1.43;100.00;95537.34;5025801;28;20064;-66
2024/02/24 03:01:33;;;;;;;0.80;0.60;;;;;;;1.56;100.00;95531.72;5017433;28;20045;-66
2024/02/24 03:04:00;;;;;;;1.92;0.85;;;;;;;1.62;100.00;95526.50;5017661;28;20034;-66
2024/02/24 03:06:26;;;;;;;3.38;0.88;;;;;;;1.62;100.00;95529.16;5019377;28;20073;-66
2024/02/24 03:08:53;;;;;;;0.88;0.65;;;;;;;1.64;100.00;95517.19;5023486;28;20516;-66
2024/02/24 03:11:22;;;;;;;0.45;0.40;;;;;;;1.65;100.00;95518.00;5023463;28;20394;-66
2024/02/24 03:13:49;;;;;;;1.50;1.00;;;;;;;1.57;100.00;95508.53;5018664;28;20512;-66
2024/02/24 03:16:18;;;;;;;1.33;0.70;;;;;;;1.52;100.00;95517.25;5016469;28;20041;-66
2024/02/24 03:18:45;;;;;;;1.70;0.57;;;;;;;1.54;100.00;95512.50;5018481;28;20125;-66
2024/02/24 03:21:11;;;;;;;2.72;0.70;;;;;;;1.50;100.00;95507.88;5011832;28;20121;-66
2024/02/24 03:23:38;;;;;;;1.88;0.77;;;;;;;1.51;100.00;95514.84;5022690;28;20667;-66
2024/02/24 03:26:05;;;;;;;2.22;0.90;;;;;;;1.46;100.00;95512.06;5023129;28;20045;-66
2024/02/24 03:28:31;;;;;;;2.65;1.10;;;;;;;1.44;100.00;95528.34;5018404;28;20111;-66
2024/02/24 03:30:58;;;;;;;2.55;1.00;;;;;;;1.45;100.00;95529.13;5017902;28;20045;-65
2024/02/24 03:33:24;;;;;;;1.63;0.70;;;;;;;1.55;100.00;95532.00;5024766;28;20049;-65
2024/02/24 03:35:51;;;;;;;0.98;0.70;;;;;;;1.53;100.00;95528.75;5022408;28;20043;-65
2024/02/24 03:38:17;;;;;;;1.33;0.77;;;;;;;1.54;100.00;95517.00;5026119;28;20419;-66
2024/02/24 03:40:44;;;;;;;2.67;0.98;;;;;;;1.63;100.00;95520.94;5012024;28;20046;-66
2024/02/24 03:43:11;;;;;;;1.38;0.52;;;;;;;1.65;100.00;95520.66;5014740;28;20042;-65
2024/02/24 03:45:37;;;;;;;2.42;0.60;;;;;;;1.60;100.00;95525.91;5022347;28;20068;-66
2024/02/24 03:48:04;;;;;;;1.10;0.70;;;;;;;1.63;100.00;95528.94;5013316;28;20311;-66
2024/02/24 03:50:31;;;;;;;0.98;0.50;;;;;;;1.66;100.00;95524.97;5026690;28;20049;-66
2024/02/24 03:52:58;;;;;;;1.80;0.80;;;;;;;1.57;100.00;95540.53;5015684;28;20041;-66
2024/02/24 03:55:24;;;;;;;1.80;0.70;;;;;;;1.55;100.00;95532.00;5015017;28;20052;-66
2024/02/24 03:57:51;;;;;;;0.90;0.60;;;;;;;1.53;100.00;95540.22;5022157;28;20134;-65
2024/02/24 04:00:17;;;;;;;2.45;0.68;;;;;;;1.47;100.00;95546.50;5015662;28;20037;-66
2024/02/24 04:02:44;;;;;;;1.27;0.70;;;;;;;1.47;100.00;95545.72;5013269;28;20521;-65
2024/02/24 04:05:11;;;;;;;2.88;0.70;;;;;;;1.40;100.00;95549.31;5020790;28;20049;-66
2024/02/24 04:07:37;;;;;;;1.02;0.60;;;;;;;1.36;100.00;95548.16;5012002;28;20038;-66
2024/02/24 04:10:05;;;;;;;1.00;0.60;;;;;;;1.43;100.00;95548.03;5012268;28;20038;-65
2024/02/24 04:12:31;;;;;;;1.38;0.50;;;;;;;1.48;100.00;95552.66;5017834;28;20050;-65
2024/02/24 04:14:58;;;;;;;1.95;0.80;;;;;;;1.53;100.00;95553.56;5022598;28;20037;-66
2024/02/24 04:17:24;;;;;;;1.40;0.57;;;;;;;1.66;100.00;95565.00;5018432;28;20571;-66
2024/02/24 04:19:51;;;;;;;1.83;0.88;;;;;;;1.61;100.00;95562.22;5014388;28;20143;-65
2024/02/24 04:22:18;;;;;;;0.80;0.52;;;;;;;1.66;100.00;95560.44;5015082;28;20091;-65
2024/02/24 04:24:45;;;;;;;1.65;0.57;;;;;;;1.65;100.00;95555.34;5020586;28;20044;-66
2024/02/24 04:27:11;;;;;;;0.95;0.52;;;;;;;1.71;100.00;95566.91;5014897;28;20060;-65
2024/02/24 04:29:38;;;;;;;1.75;0.65;;;;;;;1.71;100.00;95559.75;5015596;28;20049;-66
2024/02/24 04:32:05;;;;;;;1.48;0.50;;;;;;;1.74;100.00;95555.78;5023653;28;20046;-66
2024/02/24 04:34:31;;;;;;;1.05;0.60;;;;;;;1.69;100.00;95564.50;5023950;28;20132;-66
2024/02/24 04:36:58;;;;;;;1.75;0.70;;;;;;;1.76;100.00;95572.34;5025657;28;20034;-66
2024/02/24 04:39:24;;;;;;;2.05;0.70;;;;;;;1.81;100.00;95578.59;5021955;28;20057;-66
2024/02/24 04:41:51;;;;;;;0.95;0.55;;;;;;;1.84;100.00;95581.84;5022990;28;20632;-66
2024/02/24 04:44:18;;;;;;;0.47;0.40;;;;;;;1.94;100.00;95579.34;5020661;28;20056;-66
2024/02/24 04:46:44;;;;;;;1.33;0.50;;;;;;;1.84;100.00;95584.50;5019918;28;20120;-66
2024/02/24 04:49:11;;;;;;;0.35;0.30;;;;;;;1.92;100.00;95579.56;5024174;28;20057;-66
2024/02/24 04:51:37;;;;;;;1.33;0.50;;;;;;;1.85;100.00;95578.94;5023914;28;20033;-66
2024/02/24 04:54:04;;;;;;;0.60;0.50;;;;;;;1.78;100.00;95580.94;5027090;28;20080;-66
2024/02/24 04:56:31;;;;;;;0.47;0.35;;;;;;;1.76;100.00;95578.50;5016880;28;20046;-66
2024/02/24 04:58:57;;;;;;;1.02;0.52;;;;;;;1.73;100.00;95576.31;5019634;28;20042;-66
2024/02/24 05:01:24;;;;;;;1.05;0.60;;;;;;;1.78;100.00;95589.75;5025845;28;20041;-66
2024/02/24 05:03:50;;;;;;;0.75;0.30;;;;;;;1.85;100.00;95586.94;5024095;28;20060;-66
2024/02/24 05:06:17;;;;;;;1.20;0.63;;;;;;;1.78;100.00;95595.09;5025594;28;20054;-66
2024/02/24 05:08:43;;;;;;;1.75;0.50;;;;;;;1.75;100.00;95598.25;5025438;28;20044;-66
2024/02/24 05:11:10;;;;;;;2.97;0.65;;;;;;;1.76;100.00;95596.38;5017645;28;20113;-65
2024/02/24 05:13:37;;;;;;;3.40;0.70;;;;;;;1.78;100.00;95594.28;5016250;28;20123;-65
2024/02/24 05:16:04;;;;;;;0.95;0.50;;;;;;;1.72;100.00;95592.56;5019101;28;20053;-65
2024/02/24 05:18:31;;;;;;;1.00;0.50;;;;;;;1.78;100.00;95596.94;5019699;28;20042;-65
2024/02/24 05:21:01;;;;;;;1.95;0.70;;;;;;;1.84;100.00;95605.84;5024698;28;20440;-66
2024/02/24 05:23:28;;;;;;;1.95;0.75;;;;;;;1.78;100.00;95605.78;5017567;28;20045;-66
2024/02/24 05:25:55;;;;;;;0.82;0.50;;;;;;;1.80;100.00;95605.50;5023621;28;20037;-65
2024/02/24 05:28:21;;;;;;;3.63;0.65;;;;;;;1.73;100.00;95597.66;5023465;28;20034;-65
2024/02/24 05:30:48;;;;;;;1.52;0.60;;;;;;;1.73;100.00;95600.31;5022029;28;20064;-65
2024/02/24 05:33:15;;;;;;;1.38;0.70;;;;;;;1.69;100.00;95609.84;5021984;28;20041;-65
2024/02/24 05:35:42;;;;;;;3.25;1.00;;;;;;;1.67;100.00;95611.97;5024344;28;20116;-66
2024/02/24 05:38:09;;;;;;;0.77;0.55;;;;;;;1.62;100.00;95619.88;5022525;28;20057;-65
2024/02/24 05:40:36;;;;;;;2.28;0.85;;;;;;;1.64;100.00;95615.09;5023873;28;20049;-65
2024/02/24 05:43:03;;;;;;;2.15;0.50;;;;;;;1.72;100.00;95624.56;5022867;28;20041;-65
2024/02/24 05:45:29;;;;;;;2.53;0.90;;;;;;;1.80;100.00;95617.00;5018733;28;20517;-65
2024/02/24 05:47:56;;;;;;;0.88;0.63;;;;;;;1.95;100.00;95619.13;5024879;28;20106;-65
2024/02/24 05:50:23;;;;;;;1.92;0.55;;;;;;;1.89;100.00;95617.44;5023514;28;20049;-65
2024/02/24 05:52:50;;;;;;;1.65;0.77;;;;;;;1.84;100.00;95629.88;5023082;28;20051;-66
2024/02/24 05:55:16;;;;;;;1.50;0.80;;;;;;;1.81;100.00;95639.19;5026046;28;20042;-66
2024/02/24 05:57:44;;;;;;;1.00;0.60;;;;;;;1.78;100.00;95634.31;5016313;28;20150;-66
2024/02/24 06:00:12;;;;;;;1.30;0.70;;;;;;;1.73;100.00;95634.22;5021749;28;20045;-66
2024/02/24 06:02:38;;;;;;;2.35;0.90;;;;;;;1.77;100.00;95636.16;5023156;28;20112;-66
2024/02/24 06:05:05;;;;;;;2.13;1.00;;;;;;;1.85;100.00;95647.50;5018427;28;20033;-66
2024/02/24 06:07:32;;;;;;;1.50;1.00;;;;;;;1.88;100.00;95652.38;5022883;28;20046;-66
2024/02/24 06:09:59;;;;;;;1.67;0.90;;;;;;;1.74;100.00;95650.00;5018103;28;20115;-66
2024/02/24 06:12:25;;;;;;;2.65;1.10;;;;;;;1.66;100.00;95656.50;5016941;28;20038;-66
2024/02/24 06:14:52;;;;;;;2.25;0.95;;;;;;;1.59;100.00;95663.03;5020138;28;20043;-66
2024/02/24 06:17:19;;;;;;;2.00;0.88;;;;;;;1.59;100.00;95666.53;5022176;28;20098;-66
2024/02/24 06:19:45;;;;;;;2.22;0.90;;;;;;;1.71;100.00;95669.13;5022425;28;20068;-66
2024/02/24 06:22:12;;;;;;;1.88;0.70;;;;;;;1.69;100.00;95680.03;5024097;28;20055;-66
2024/02/24 06:24:38;;;;;;;1.48;1.05;;;;;;;1.64;100.00;95679.97;5019891;28;20041;-66
2024/02/24 06:27:05;;;;;;;2.05;0.98;;;;;;;1.56;100.00;95686.44;5024795;28;20041;-66
2024/02/24 06:29:31;;;;;;;2.47;0.90;;;;;;;1.56;100.00;95685.66;5021172;28;20061;-66
2024/02/24 06:31:58;;;;;;;3.90;1.30;;;;;;;1.67;100.00;95689.34;5018567;28;20575;-65
2024/02/24 06:34:24;;;;;;;2.65;0.90;;;;;;;1.68;100.00;95683.78;5018599;28;20047;-66
2024/02/24 06:36:51;;;;;;;1.80;0.93;;;;;;;1.73;100.00;95687.59;5015906;28;20051;-66
2024/02/24 06:39:18;;;;;;;1.90;0.90;;;;;;;1.79;100.00;95689.28;5020627;28;20099;-66
2024/02/24 06:41:44;;;;;;;1.67;0.80;;;;;;;1.81;100.00;95685.34;5017331;28;20052;-66
2024/02/24 06:44:11;;;;;;;3.42;1.17;;;;;;;1.86;100.00;95695.31;5016680;28;20045;-66
2024/02/24 06:46:37;;;;;;;2.47;1.20;;;;;;;1.91;100.00;95695.41;5011210;28;20044;-67
2024/02/24 06:49:04;;;;;;;2.35;1.00;;;;;;;1.95;100.00;95695.72;5026650;28;20683;-65
2024/02/24 06:51:31;;;;;;;4.57;1.05;;;;;;;1.97;100.00;95701.66;5015683;28;20060;-66
2024/02/24 06:53:58;;;;;;;2.22;1.10;;;;;;;2.10;100.00;95700.53;5019553;28;20064;-66
2024/02/24 06:56:25;;;;;;;2.63;1.02;;;;;;;2.14;100.00;95708.91;5003038;28;20057;-66
2024/02/24 06:58:51;;;;;;;2.33;1.23;;;;;;;2.09;100.00;95720.28;5014916;28;20044;-66
2024/02/24 07:01:22;;;;;;;2.35;1.30;;;;;;;2.22;100.00;95735.22;5021249;28;20053;-66
2024/02/24 07:03:49;;;;;;;3.53;1.45;;;;;;;2.22;100.00;95724.53;5018741;28;20045;-67
2024/02/24 07:06:15;;;;;;;2.95;1.40;;;;;;;2.21;100.00;95723.72;5016180;28;20037;-66
2024/02/24 07:08:42;;;;;;;2.95;1.67;;;;;;;2.21;100.00;95721.06;5021600;28;20037;-66
2024/02/24 07:11:09;;;;;;;2.72;1.67;;;;;;;2.19;100.00;95738.38;5017747;28;20485;-66
2024/02/24 07:13:36;;;;;;;3.33;1.50;;;;;;;2.17;100.00;95738.59;5021168;28;20049;-65
2024/02/24 07:16:03;;;;;;;2.20;1.27;;;;;;;2.13;100.00;95753.47;5020712;28;20034;-66
2024/02/24 07:18:29;;;;;;;5.05;2.00;;;;;;;2.15;100.00;95751.41;5022054;28;20038;-65
2024/02/24 07:20:56;;;;;;;4.45;1.40;;;;;;;2.24;100.00;95757.16;5024765;28;20657;-66
2024/02/24 07:23:25;;;;;;;4.18;1.80;;;;;;;2.22;100.00;95767.28;5011569;28;20501;-66
2024/02/24 07:25:52;;;;;;;3.10;1.50;;;;;;;2.27;100.00;95769.22;5024120;28;20076;-66
2024/02/24 07:28:18;;;;;;;6.43;1.80;;;;;;;2.31;100.00;95781.03;5018065;28;20125;-66
2024/02/24 07:30:45;;;;;;;3.10;1.83;;;;;;;2.33;100.00;95782.41;5024777;28;20496;-66
2024/02/24 07:33:12;;;;;;;2.20;1.20;;;;;;;2.44;100.00;95782.63;5019154;28;20513;-66
2024/02/24 07:35:39;;;;;;;2.92;1.38;;;;;;;2.46;100.00;95802.72;5020359;28;20145;-66
2024/02/24 07:38:05;;;;;;;2.88;1.30;;;;;;;2.52;100.00;95795.59;5021895;28;20072;-66
2024/02/24 07:40:34;;;;;;;4.97;1.95;;;;;;;2.51;100.00;95793.97;5019609;28;20050;-66
2024/02/24 07:43:01;;;;;;;3.55;1.23;;;;;;;2.64;100.00;95808.91;5018196;28;20169;-66
2024/02/24 07:45:28;;;;;;;4.28;1.60;;;;;;;2.57;100.00;95818.91;5017796;28;20702;-66
2024/02/24 07:47:55;;;;;;;4.20;1.55;;;;;;;2.63;100.00;95823.31;5015205;28;20037;-66
2024/02/24 07:50:22;;;;;;;4.13;1.90;;;;;;;2.52;100.00;95827.66;5017697;28;20081;-66
2024/02/24 07:52:49;;;;;;;3.15;1.40;;;;;;;2.58;100.00;95839.25;5021457;28;20136;-66
2024/02/24 07:55:15;;;;;;;3.53;1.70;;;;;;;2.56;100.00;95844.84;5026144;28;20044;-59
2024/02/24 07:57:42;;;;;;;3.08;1.45;;;;;;;2.50;100.00;95840.44;5022539;28;20052;-57
2024/02/24 08:00:09;;;;;;;4.72;1.85;;;;;;;2.50;100.00;95845.78;5018349;28;20835;-57
2024/02/24 08:02:36;;;;;;;1.88;1.17;;;;;;;2.49;100.00;95849.50;5021865;28;20057;-58
2024/02/24 08:05:06;;;;;;;2.83;1.38;;;;;;;2.43;100.00;95859.28;5027090;28;20045;-57
2024/02/24 08:07:33;;;;;;;2.78;1.50;;;;;;;2.38;100.00;95864.53;5024935;28;20051;-56
2024/02/24 08:09:59;;;;;;;2.45;1.25;;;;;;;2.41;100.00;95865.91;5020501;28;20045;-60
2024/02/24 08:12:26;;;;;;;2.85;1.35;;;;;;;2.40;100.00;95873.09;5022368;28;20045;-59
2024/02/24 08:14:52;;;;;;;2.35;1.10;;;;;;;2.58;100.00;95872.13;5022542;28;20041;-60
2024/02/24 08:17:19;;;;;;;2.95;1.23;;;;;;;2.69;100.00;95877.69;5021570;28;20057;-62
2024/02/24 08:19:46;;;;;;;3.40;1.60;;;;;;;2.88;100.00;95872.94;5019469;28;20068;-63
2024/02/24 08:22:12;;;;;;;1.65;0.80;;;;;;;2.98;100.00;95881.16;5027427;28;20079;-63
2024/02/24 08:24:39;;;;;;;1.40;0.80;;;;;;;3.09;100.00;95889.34;5026417;28;20056;-62
2024/02/24 08:27:06;;;;;;;1.10;0.63;;;;;;;3.16;100.00;95889.22;5017252;28;20041;-65
2024/02/24 08:29:32;;;;;;;1.55;0.80;;;;;;;3.22;100.00;95886.38;5021832;28;20144;-65
2024/02/24 08:31:59;;;;;;;1.55;0.75;;;;;;;3.34;100.00;95891.66;5016192;28;20049;-66
2024/02/24 08:34:25;;;;;;;2.03;0.75;;;;;;;3.60;100.00;95889.38;5018242;28;20099;-66
2024/02/24 08:36:52;;;;;;;2.05;0.65;;;;;;;3.82;100.00;95899.34;5026405;28;20064;-65
2024/02/24 08:39:19;;;;;;;2.35;0.82;;;;;;;3.87;100.00;95895.94;5013649;28;20049;-65
2024/02/24 08:41:46;;;;;;;2.55;0.60;;;;;;;4.01;100.00;95897.22;5021053;28;20051;-67
2024/02/24 08:44:13;;;;;;;1.88;0.57;;;;;;;4.22;100.00;95899.34;5026140;28;20107;-66
2024/02/24 08:46:39;;;;;;;1.50;0.60;;;;;;;4.40;100.00;95900.94;5017690;28;20053;-66
2024/02/24 08:49:06;;;;;;;0.73;0.45;;;;;;;4.48;100.00;95897.00;5018667;28;20041;-66
2024/02/24 08:51:32;;;;;;;0.63;0.43;;;;;;;4.42;100.00;95899.63;5018197;28;20064;-66
2024/02/24 08:53:59;;;;;;;0.43;0.35;;;;;;;4.38;100.00;95909.22;5014705;28;20046;-68
2024/02/24 08:56:26;;;;;;;0.40;0.40;;;;;;;4.51;100.00;95913.41;5022578;28;20295;-68
2024/02/24 08:58:52;;;;;;;1.00;0.50;;;;;;;4.68;100.00;95915.19;5017107;28;20128;-65
2024/02/24 09:01:19;;;;;;;0.88;0.50;;;;;;;5.05;100.00;95914.53;5021961;28;20528;-65
2024/02/24 09:03:45;;;;;;;1.50;0.50;;;;;;;5.23;100.00;95911.78;5019898;28;20055;-65
2024/02/24 09:06:12;;;;;;;1.80;0.50;;;;;;;5.34;100.00;95914.28;5021523;28;20052;-65
2024/02/24 09:08:39;;;;;;;1.75;0.43;;;;;;;5.41;100.00;95905.22;5022511;28;20041;-65
2024/02/24 09:11:06;;;;;;;1.13;0.45;;;;;;;5.12;100.00;95905.50;5027445;28;20045;-65
2024/02/24 09:13:32;;;;;;;0.20;0.20;;;;;;;5.15;100.00;95911.16;5019409;28;20510;-65
2024/02/24 09:15:59;;;;;;;0.52;0.30;;;;;;;5.27;100.00;95908.31;5016910;28;20601;-65
2024/02/24 09:18:27;;;;;;;2.10;0.30;;;;;;;5.31;100.00;95922.06;5023023;28;20094;-65
2024/02/24 09:20:54;;;;;;;0.32;0.30;;;;;;;5.23;100.00;95925.19;5026893;28;20045;-66
2024/02/24 09:23:21;;;;;;;0.82;0.38;;;;;;;5.23;100.00;95935.94;5016029;28;20049;-65
2024/02/24 09:25:48;;;;;;;0.10;0.10;;;;;;;5.37;100.00;95939.81;5027620;28;20141;-66
2024/02/24 09:28:14;;;;;;;0.68;0.38;;;;;;;5.40;100.00;95939.31;5024155;28;20491;-66
2024/02/24 09:30:41;;;;;;;0.45;0.20;;;;;;;5.34;100.00;95932.25;5018031;28;20652;-65
2024/02/24 09:33:07;;;;;;;0.10;0.10;;;;;;;5.57;100.00;95935.72;5014787;28;20052;-65
2024/02/24 09:35:34;;;;;;;0.20;0.20;;;;;;;5.56;100.00;95940.25;5013936;28;20136;-65
2024/02/24 09:38:01;;;;;;;0.90;0.30;;;;;;;5.65;100.00;95943.31;5018033;28;20041;-65
2024/02/24 09:40:28;;;;;;;0.10;0.10;;;;;;;5.68;100.00;95934.72;5024842;28;20118;-64
2024/02/24 09:43:03;;;;;;;0.20;0.13;;;;;;;5.80;100.00;95931.06;5025299;28;20068;-65
2024/02/24 09:45:41;;;;;;;0.22;0.22;;;;;;;5.98;100.00;95932.53;5023901;28;20057;-65
2024/02/24 09:48:07;;;;;;;0.20;0.10;;;;;;;6.11;100.00;95934.81;5017740;28;20037;-65
2024/02/24 09:50:34;;;;;;;0.52;0.20;;;;;;;6.11;100.00;95940.19;5021208;28;20482;-64
2024/02/24 09:53:01;;;;;;;0.35;0.20;;;;;;;5.78;100.00;95936.69;5024092;28;20568;-64
2024/02/24 09:55:27;;;;;;;0.30;0.20;;;;;;;6.05;100.00;95945.78;5019092;28;20873;-64
2024/02/24 09:57:56;;;;;;;0.47;0.30;;;;;;;6.33;100.00;95958.06;5020330;28;20717;-64
2024/02/24 10:00:23;;;;;;;0.20;0.20;;;;;;;6.58;95.53;95963.84;5022637;28;20045;-64
2024/02/24 10:02:50;;;;;;;0.30;0.20;;;;;;;6.80;98.70;95962.84;5017479;28;20045;-64
2024/02/24 10:05:16;;;;;;;1.58;0.60;;;;;;;6.69;93.90;95968.19;5022792;28;20041;-64
2024/02/24 10:07:45;;;;;;;0.17;0.15;;;;;;;6.80;94.42;95977.13;5014508;28;20049;-64
2024/02/24 10:10:19;;;;;;;0.25;0.20;;;;;;;6.78;91.97;95973.88;5024817;28;20502;-64
2024/02/24 10:12:58;;;;;;;2.40;0.40;;;;;;;7.14;91.56;95979.41;5025006;28;20059;-65
2024/02/24 10:15:25;;;;;;;0.68;0.30;;;;;;;7.28;88.35;95992.38;5023980;28;20060;-68
2024/02/24 10:17:57;;;;;;;0.10;0.10;;;;;;;7.47;88.94;95978.41;5023906;28;20172;-65
2024/02/24 10:20:23;;;;;;;;;;;;;;;7.37;79.62;95988.09;5013360;28;20052;-64
2024/02/24 10:22:50;;;;;;;0.38;0.20;;;;;;;7.13;77.66;95982.38;5026402;28;19951;-64
2024/02/24 10:25:18;;;;;;;1.10;0.10;;;;;;;6.82;78.55;95966.91;5021983;28;20533;-68
2024/02/24 10:27:45;;;;;;;0.47;0.20;;;;;;;6.72;76.84;95969.56;5019316;28;20049;-67
2024/02/24 10:30:12;;;;;;;0.85;0.30;;;;;;;6.85;77.80;95969.06;5018195;28;20041;-66
2024/02/24 10:32:41;;;;;;;0.80;0.20;;;;;;;6.62;84.37;95989.97;5015960;28;20045;-66
2024/02/24 10:35:08;;;;;;;0.55;0.15;;;;;;;6.74;79.68;96000.50;5015968;28;20056;-65
2024/02/24 10:37:35;;;;;;;0.32;0.20;;;;;;;6.70;78.05;95996.72;5017757;28;20136;-65
2024/02/24 10:40:22;;;;;;;0.90;0.40;;;;;;;7.09;74.50;96002.81;5021362;28;20123;-64
2024/02/24 10:42:49;;;;;;;0.25;0.20;;;;;;;6.99;72.93;96003.56;5017287;28;20049;-63
2024/02/24 10:45:16;;;;;;;0.20;0.20;;;;;;;7.02;73.00;95979.66;5019205;28;20045;-66
2024/02/24 10:47:42;;;;;;;0.88;0.30;;;;;;;7.40;70.91;95981.34;5011401;28;20045;-65
2024/02/24 10:50:11;;;;;;;1.20;0.40;;;;;;;7.36;69.61;95985.66;5022198;28;20132;-65
2024/02/24 10:52:40;;;;;;;0.38;0.30;;;;;;;7.24;72.81;95978.66;5016066;28;20071;-63
2024/02/24 10:55:08;;;;;;;2.22;0.40;;;;;;;7.63;72.24;95985.44;5024952;28;20045;-63
2024/02/24 10:57:36;;;;;;;0.85;0.13;;;;;;;7.64;66.95;95986.25;5020626;28;20848;-66
2024/02/24 11:00:29;;;;;;;0.77;0.22;;;;;;;7.60;67.18;95977.91;5024105;28;20124;-62
2024/02/24 11:02:58;;;;;;;0.10;0.10;;;;;;;7.86;69.49;95988.72;5019022;28;20042;-63
2024/02/24 11:05:25;;;;;;;0.30;0.17;;;;;;;7.86;64.30;95993.28;5021333;28;20045;-65
2024/02/24 11:07:52;;;;;;;0.82;0.28;;;;;;;7.75;66.46;96003.25;5020045;28;20087;-64
2024/02/24 11:10:20;;;;;;;0.65;0.40;;;;;;;8.16;69.40;96005.97;5024970;28;20050;-64
2024/02/24 11:12:50;;;;;;;0.60;0.30;;;;;;;7.95;66.63;95997.06;5019551;28;20042;-63
2024/02/24 11:15:24;;;;;;;1.10;0.30;;;;;;;8.09;69.54;96010.81;5018698;28;20548;-67
2024/02/24 11:17:52;;;;;;;0.22;0.22;;;;;;;8.35;66.53;96020.78;5016842;28;20055;-62
2024/02/24 11:20:52;;;;;;;0.55;0.20;;;;;;;8.07;64.02;96018.34;5022468;28;20448;-64
2024/02/24 11:23:24;;;;;;;0.65;0.10;;;;;;;7.73;66.47;96005.41;5014104;28;20091;-62
2024/02/24 11:26:08;;;;;;;;;;;;;;;7.88;64.33;96012.69;5024737;28;20044;-64
2024/02/24 11:28:45;;;;;;;0.43;0.17;;;;;;;7.77;64.53;96011.88;5022315;28;20058;-66
2024/02/24 11:31:29;;;;;;;0.20;0.17;;;;;;;7.81;68.21;96015.66;5028932;28;20049;-65
2024/02/24 11:34:05;;;;;;;1.30;0.40;;;;;;;7.86;65.70;96026.44;5022000;28;20044;-66